Portland, Oregon
Traffic Map
Current Weather Conditions
Portland, Oregon
Scattered Clouds
Scattered Clouds
30°
Feels Like: 30°
Wind Chill: 30° Ceiling: Unl
Heat Index: 30° Visibility: 10mi
Dew Point: 16° Wind: 5mph
Humidity: 41% Direction: 340° (NNW)
Pressure: 29.84in Gusts: 0mph
Raw Report DataKPDX 080153Z 34004KT 10SM SCT250 30/16 A2984 RMK AO2 SLP102 T03000156
Traffic Incident Summary
Active as of:
Severity:
Category:
InformationThere was an issue retrieving the traffic information for this location. Please try a different location or try again shortly.
Advertisements
Track Severe Weather on mobile